sensor_id;sensor_type;location;lat;lon;timestamp;P1;durP1;ratioP1;P2;durP2;ratioP2
45033;SDS011;30771;47.988;-4.186;2023-02-11T07:02:31;22.80;;;13.70;;
45033;SDS011;30771;47.988;-4.186;2023-02-11T07:04:57;21.13;;;13.50;;
45033;SDS011;30771;47.988;-4.186;2023-02-11T07:07:22;17.20;;;12.50;;
45033;SDS011;30771;47.988;-4.186;2023-02-11T07:09:47;19.45;;;13.52;;
45033;SDS011;30771;47.988;-4.186;2023-02-11T07:12:13;22.70;;;13.85;;
45033;SDS011;30771;47.988;-4.186;2023-02-11T07:14:38;22.42;;;13.45;;
45033;SDS011;30771;47.988;-4.186;2023-02-11T07:17:04;19.00;;;14.02;;
45033;SDS011;30771;47.988;-4.186;2023-02-11T07:19:29;20.92;;;14.30;;
45033;SDS011;30771;47.988;-4.186;2023-02-11T07:21:54;19.02;;;14.02;;
45033;SDS011;30771;47.988;-4.186;2023-02-11T07:24:20;20.05;;;14.05;;
45033;SDS011;30771;47.988;-4.186;2023-02-11T07:26:45;20.98;;;14.70;;
45033;SDS011;30771;47.988;-4.186;2023-02-11T07:29:11;26.60;;;15.35;;
45033;SDS011;30771;47.988;-4.186;2023-02-11T07:31:36;18.10;;;13.43;;
45033;SDS011;30771;47.988;-4.186;2023-02-11T07:34:01;22.33;;;13.38;;
45033;SDS011;30771;47.988;-4.186;2023-02-11T07:36:28;21.08;;;14.00;;
45033;SDS011;30771;47.988;-4.186;2023-02-11T07:38:54;34.63;;;19.83;;
45033;SDS011;30771;47.988;-4.186;2023-02-11T07:41:21;29.10;;;17.80;;
45033;SDS011;30771;47.988;-4.186;2023-02-11T07:43:47;23.60;;;16.70;;
45033;SDS011;30771;47.988;-4.186;2023-02-11T07:46:14;31.88;;;20.05;;
45033;SDS011;30771;47.988;-4.186;2023-02-11T07:48:41;31.35;;;23.38;;
45033;SDS011;30771;47.988;-4.186;2023-02-11T07:51:11;26.48;;;16.20;;
45033;SDS011;30771;47.988;-4.186;2023-02-11T07:53:38;24.67;;;16.20;;
45033;SDS011;30771;47.988;-4.186;2023-02-11T07:56:04;22.92;;;15.68;;
45033;SDS011;30771;47.988;-4.186;2023-02-11T07:58:30;22.42;;;14.73;;
45033;SDS011;30771;47.988;-4.186;2023-02-11T08:01:06;22.23;;;15.70;;
45033;SDS011;30771;47.988;-4.186;2023-02-11T08:03:33;21.33;;;16.02;;
45033;SDS011;30771;47.988;-4.186;2023-02-11T08:06:03;35.00;;;17.45;;
45033;SDS011;30771;47.988;-4.186;2023-02-11T08:08:30;23.40;;;17.05;;
45033;SDS011;30771;47.988;-4.186;2023-02-11T08:10:55;23.42;;;14.50;;
45033;SDS011;30771;47.988;-4.186;2023-02-11T08:13:20;33.75;;;15.45;;
45033;SDS011;30771;47.988;-4.186;2023-02-11T08:15:46;22.90;;;15.10;;
45033;SDS011;30771;47.988;-4.186;2023-02-11T08:18:11;27.90;;;16.58;;
45033;SDS011;30771;47.988;-4.186;2023-02-11T08:20:36;25.67;;;16.23;;
45033;SDS011;30771;47.988;-4.186;2023-02-11T08:23:02;30.85;;;16.63;;
45033;SDS011;30771;47.988;-4.186;2023-02-11T08:25:31;27.88;;;17.25;;
45033;SDS011;30771;47.988;-4.186;2023-02-11T08:27:56;23.60;;;15.23;;
45033;SDS011;30771;47.988;-4.186;2023-02-11T08:30:22;25.70;;;15.95;;
45033;SDS011;30771;47.988;-4.186;2023-02-11T08:32:48;22.70;;;14.73;;
45033;SDS011;30771;47.988;-4.186;2023-02-11T08:35:13;22.15;;;14.20;;
45033;SDS011;30771;47.988;-4.186;2023-02-11T08:37:38;21.95;;;14.82;;
45033;SDS011;30771;47.988;-4.186;2023-02-11T08:40:04;22.83;;;13.93;;
45033;SDS011;30771;47.988;-4.186;2023-02-11T08:42:29;28.48;;;15.20;;
45033;SDS011;30771;47.988;-4.186;2023-02-11T08:44:55;23.75;;;14.88;;
45033;SDS011;30771;47.988;-4.186;2023-02-11T08:47:20;25.10;;;14.77;;
45033;SDS011;30771;47.988;-4.186;2023-02-11T08:49:45;24.20;;;14.40;;
45033;SDS011;30771;47.988;-4.186;2023-02-11T08:52:11;24.95;;;14.13;;
45033;SDS011;30771;47.988;-4.186;2023-02-11T08:54:36;28.75;;;15.45;;
45033;SDS011;30771;47.988;-4.186;2023-02-11T08:57:02;23.48;;;15.07;;
45033;SDS011;30771;47.988;-4.186;2023-02-11T08:59:28;31.08;;;15.10;;
45033;SDS011;30771;47.988;-4.186;2023-02-11T09:01:53;27.80;;;15.60;;
45033;SDS011;30771;47.988;-4.186;2023-02-11T09:04:18;26.50;;;15.18;;
45033;SDS011;30771;47.988;-4.186;2023-02-11T09:06:44;23.73;;;14.57;;
45033;SDS011;30771;47.988;-4.186;2023-02-11T09:09:13;19.20;;;14.00;;
45033;SDS011;30771;47.988;-4.186;2023-02-11T09:11:40;22.80;;;14.07;;
45033;SDS011;30771;47.988;-4.186;2023-02-11T09:14:07;23.25;;;13.75;;
45033;SDS011;30771;47.988;-4.186;2023-02-11T09:16:40;19.50;;;13.07;;
45033;SDS011;30771;47.988;-4.186;2023-02-11T09:19:08;17.55;;;12.43;;
45033;SDS011;30771;47.988;-4.186;2023-02-11T09:21:34;20.70;;;12.73;;
45033;SDS011;30771;47.988;-4.186;2023-02-11T09:23:59;17.35;;;12.07;;
45033;SDS011;30771;47.988;-4.186;2023-02-11T09:26:25;21.15;;;13.20;;
45033;SDS011;30771;47.988;-4.186;2023-02-11T09:28:52;18.90;;;12.43;;
45033;SDS011;30771;47.988;-4.186;2023-02-11T09:31:19;19.20;;;11.73;;
45033;SDS011;30771;47.988;-4.186;2023-02-11T09:33:46;17.63;;;12.13;;
45033;SDS011;30771;47.988;-4.186;2023-02-11T09:36:17;18.30;;;12.30;;
45033;SDS011;30771;47.988;-4.186;2023-02-11T09:38:44;20.88;;;11.93;;
45033;SDS011;30771;47.988;-4.186;2023-02-11T09:43:48;19.60;;;11.98;;
45033;SDS011;30771;47.988;-4.186;2023-02-11T09:46:17;22.05;;;11.82;;
45033;SDS011;30771;47.988;-4.186;2023-02-11T09:48:44;17.55;;;11.20;;
45033;SDS011;30771;47.988;-4.186;2023-02-11T09:51:15;19.50;;;12.07;;
45033;SDS011;30771;47.988;-4.186;2023-02-11T09:53:44;19.45;;;11.05;;
45033;SDS011;30771;47.988;-4.186;2023-02-11T09:58:40;13.90;;;11.15;;
45033;SDS011;30771;47.988;-4.186;2023-02-11T10:16:01;17.45;;;10.43;;
45033;SDS011;30771;47.988;-4.186;2023-02-11T10:21:11;17.52;;;10.18;;
45033;SDS011;30771;47.988;-4.186;2023-02-11T10:23:40;14.57;;;9.50;;
45033;SDS011;30771;47.988;-4.186;2023-02-11T10:26:12;16.00;;;10.15;;
45033;SDS011;30771;47.988;-4.186;2023-02-11T10:28:41;15.25;;;10.38;;
45033;SDS011;30771;47.988;-4.186;2023-02-11T10:31:12;13.98;;;9.23;;
45033;SDS011;30771;47.988;-4.186;2023-02-11T10:33:46;12.02;;;9.07;;
45033;SDS011;30771;47.988;-4.186;2023-02-11T10:36:13;12.85;;;9.77;;
45033;SDS011;30771;47.988;-4.186;2023-02-11T10:38:41;13.98;;;9.27;;
45033;SDS011;30771;47.988;-4.186;2023-02-11T10:41:15;12.80;;;9.65;;
45033;SDS011;30771;47.988;-4.186;2023-02-11T10:43:44;14.63;;;9.30;;
45033;SDS011;30771;47.988;-4.186;2023-02-11T10:46:13;18.00;;;9.43;;
45033;SDS011;30771;47.988;-4.186;2023-02-11T10:56:29;12.43;;;8.60;;
45033;SDS011;30771;47.988;-4.186;2023-02-11T10:59:01;11.80;;;8.68;;
45033;SDS011;30771;47.988;-4.186;2023-02-11T11:01:40;14.52;;;7.93;;
45033;SDS011;30771;47.988;-4.186;2023-02-11T11:04:31;12.32;;;9.30;;
45033;SDS011;30771;47.988;-4.186;2023-02-11T11:07:35;9.70;;;7.70;;
45033;SDS011;30771;47.988;-4.186;2023-02-11T11:14:55;11.60;;;7.63;;
45033;SDS011;30771;47.988;-4.186;2023-02-11T11:17:27;10.93;;;7.25;;
45033;SDS011;30771;47.988;-4.186;2023-02-11T11:19:52;14.20;;;7.63;;
45033;SDS011;30771;47.988;-4.186;2023-02-11T11:22:21;11.23;;;7.32;;
45033;SDS011;30771;47.988;-4.186;2023-02-11T11:24:47;10.60;;;6.57;;
45033;SDS011;30771;47.988;-4.186;2023-02-11T11:27:17;11.43;;;7.68;;
45033;SDS011;30771;47.988;-4.186;2023-02-11T11:29:53;10.52;;;7.60;;
45033;SDS011;30771;47.988;-4.186;2023-02-11T11:32:26;11.13;;;7.15;;
45033;SDS011;30771;47.988;-4.186;2023-02-11T11:34:55;10.57;;;7.18;;
45033;SDS011;30771;47.988;-4.186;2023-02-11T11:37:25;11.73;;;7.88;;
45033;SDS011;30771;47.988;-4.186;2023-02-11T11:39:55;10.83;;;7.50;;
45033;SDS011;30771;47.988;-4.186;2023-02-11T11:42:27;13.23;;;7.93;;
45033;SDS011;30771;47.988;-4.186;2023-02-11T11:44:56;12.48;;;7.45;;
45033;SDS011;30771;47.988;-4.186;2023-02-11T11:47:24;11.03;;;7.00;;
45033;SDS011;30771;47.988;-4.186;2023-02-11T11:52:48;11.63;;;8.10;;
45033;SDS011;30771;47.988;-4.186;2023-02-11T11:55:21;10.55;;;7.65;;
45033;SDS011;30771;47.988;-4.186;2023-02-11T11:57:50;9.10;;;6.97;;
45033;SDS011;30771;47.988;-4.186;2023-02-11T12:00:20;11.07;;;7.47;;
45033;SDS011;30771;47.988;-4.186;2023-02-11T12:22:10;9.70;;;7.28;;
45033;SDS011;30771;47.988;-4.186;2023-02-11T12:43:42;11.35;;;7.25;;
45033;SDS011;30771;47.988;-4.186;2023-02-11T12:51:57;6.57;;;5.85;;
45033;SDS011;30771;47.988;-4.186;2023-02-11T12:57:15;7.53;;;6.40;;
45033;SDS011;30771;47.988;-4.186;2023-02-11T12:59:59;7.35;;;5.90;;
45033;SDS011;30771;47.988;-4.186;2023-02-11T13:03:29;7.20;;;6.38;;
45033;SDS011;30771;47.988;-4.186;2023-02-11T13:05:59;10.40;;;6.72;;
45033;SDS011;30771;47.988;-4.186;2023-02-11T13:08:19;8.23;;;7.10;;
45033;SDS011;30771;47.988;-4.186;2023-02-11T13:10:49;8.73;;;6.70;;
45033;SDS011;30771;47.988;-4.186;2023-02-11T13:13:22;7.97;;;6.00;;
45033;SDS011;30771;47.988;-4.186;2023-02-11T13:18:28;7.63;;;5.75;;
45033;SDS011;30771;47.988;-4.186;2023-02-11T13:23:40;10.13;;;6.70;;
45033;SDS011;30771;47.988;-4.186;2023-02-11T13:32:14;17.63;;;6.88;;
45033;SDS011;30771;47.988;-4.186;2023-02-11T13:37:05;9.73;;;6.47;;
45033;SDS011;30771;47.988;-4.186;2023-02-11T13:42:48;7.88;;;6.20;;
45033;SDS011;30771;47.988;-4.186;2023-02-11T13:45:39;9.15;;;7.07;;
45033;SDS011;30771;47.988;-4.186;2023-02-11T13:48:34;7.65;;;6.50;;
45033;SDS011;30771;47.988;-4.186;2023-02-11T13:56:42;6.40;;;5.38;;
45033;SDS011;30771;47.988;-4.186;2023-02-11T14:02:04;7.55;;;4.72;;
45033;SDS011;30771;47.988;-4.186;2023-02-11T14:07:28;6.90;;;4.82;;
45033;SDS011;30771;47.988;-4.186;2023-02-11T14:09:55;6.50;;;5.18;;
45033;SDS011;30771;47.988;-4.186;2023-02-11T14:12:22;5.95;;;4.85;;
45033;SDS011;30771;47.988;-4.186;2023-02-11T14:15:00;4.72;;;4.25;;
45033;SDS011;30771;47.988;-4.186;2023-02-11T14:17:35;6.35;;;4.65;;
45033;SDS011;30771;47.988;-4.186;2023-02-11T14:20:01;7.78;;;4.53;;
45033;SDS011;30771;47.988;-4.186;2023-02-11T14:22:39;5.65;;;4.70;;
45033;SDS011;30771;47.988;-4.186;2023-02-11T14:25:26;5.50;;;4.57;;
45033;SDS011;30771;47.988;-4.186;2023-02-11T14:27:52;5.97;;;4.20;;
45033;SDS011;30771;47.988;-4.186;2023-02-11T14:39:00;5.40;;;3.92;;
45033;SDS011;30771;47.988;-4.186;2023-02-11T14:41:43;4.65;;;4.00;;
45033;SDS011;30771;47.988;-4.186;2023-02-11T14:44:15;3.90;;;3.43;;
45033;SDS011;30771;47.988;-4.186;2023-02-11T14:46:44;5.63;;;3.53;;
45033;SDS011;30771;47.988;-4.186;2023-02-11T14:49:15;4.43;;;3.67;;
45033;SDS011;30771;47.988;-4.186;2023-02-11T14:51:48;4.15;;;3.47;;
45033;SDS011;30771;47.988;-4.186;2023-02-11T14:54:17;8.52;;;4.10;;
45033;SDS011;30771;47.988;-4.186;2023-02-11T14:56:45;5.93;;;3.90;;
45033;SDS011;30771;47.988;-4.186;2023-02-11T14:59:17;5.53;;;3.55;;
45033;SDS011;30771;47.988;-4.186;2023-02-11T15:01:45;6.30;;;4.25;;
45033;SDS011;30771;47.988;-4.186;2023-02-11T15:07:09;5.97;;;4.22;;
45033;SDS011;30771;47.988;-4.186;2023-02-11T15:09:44;5.75;;;4.85;;
45033;SDS011;30771;47.988;-4.186;2023-02-11T15:12:16;10.93;;;8.65;;
45033;SDS011;30771;47.988;-4.186;2023-02-11T15:14:53;9.30;;;5.75;;
45033;SDS011;30771;47.988;-4.186;2023-02-11T15:19:50;6.38;;;4.82;;
45033;SDS011;30771;47.988;-4.186;2023-02-11T15:22:21;5.65;;;4.90;;
45033;SDS011;30771;47.988;-4.186;2023-02-11T15:25:08;17.48;;;7.05;;
45033;SDS011;30771;47.988;-4.186;2023-02-11T15:27:41;101.40;;;18.95;;
45033;SDS011;30771;47.988;-4.186;2023-02-11T15:32:54;7.32;;;5.57;;
45033;SDS011;30771;47.988;-4.186;2023-02-11T15:35:22;11.07;;;6.80;;
45033;SDS011;30771;47.988;-4.186;2023-02-11T15:37:48;12.60;;;7.18;;
45033;SDS011;30771;47.988;-4.186;2023-02-11T15:40:20;7.53;;;6.47;;
45033;SDS011;30771;47.988;-4.186;2023-02-11T15:42:52;9.55;;;6.55;;
45033;SDS011;30771;47.988;-4.186;2023-02-11T15:45:43;8.13;;;6.38;;
45033;SDS011;30771;47.988;-4.186;2023-02-11T15:51:16;7.40;;;5.82;;
45033;SDS011;30771;47.988;-4.186;2023-02-11T15:53:47;7.45;;;6.28;;
45033;SDS011;30771;47.988;-4.186;2023-02-11T15:56:16;12.77;;;6.00;;
45033;SDS011;30771;47.988;-4.186;2023-02-11T15:58:42;9.35;;;6.18;;
45033;SDS011;30771;47.988;-4.186;2023-02-11T16:01:10;7.65;;;5.30;;
45033;SDS011;30771;47.988;-4.186;2023-02-11T16:03:37;18.33;;;14.80;;
45033;SDS011;30771;47.988;-4.186;2023-02-11T16:06:14;8.55;;;7.47;;
45033;SDS011;30771;47.988;-4.186;2023-02-11T16:08:57;7.47;;;5.68;;
45033;SDS011;30771;47.988;-4.186;2023-02-11T16:11:31;9.10;;;5.45;;
45033;SDS011;30771;47.988;-4.186;2023-02-11T16:13:59;8.82;;;6.60;;
45033;SDS011;30771;47.988;-4.186;2023-02-11T16:16:31;14.70;;;9.40;;
45033;SDS011;30771;47.988;-4.186;2023-02-11T16:18:59;12.57;;;10.68;;
45033;SDS011;30771;47.988;-4.186;2023-02-11T16:21:27;15.38;;;11.95;;
45033;SDS011;30771;47.988;-4.186;2023-02-11T16:23:55;14.85;;;11.23;;
45033;SDS011;30771;47.988;-4.186;2023-02-11T16:26:29;13.60;;;11.68;;
45033;SDS011;30771;47.988;-4.186;2023-02-11T16:31:35;16.17;;;12.10;;
45033;SDS011;30771;47.988;-4.186;2023-02-11T16:34:04;13.75;;;11.60;;
45033;SDS011;30771;47.988;-4.186;2023-02-11T16:36:35;20.15;;;16.80;;
45033;SDS011;30771;47.988;-4.186;2023-02-11T16:39:01;19.88;;;16.10;;
45033;SDS011;30771;47.988;-4.186;2023-02-11T16:41:26;19.88;;;15.93;;
45033;SDS011;30771;47.988;-4.186;2023-02-11T16:43:51;22.25;;;15.88;;
45033;SDS011;30771;47.988;-4.186;2023-02-11T16:46:21;17.70;;;15.57;;
45033;SDS011;30771;47.988;-4.186;2023-02-11T16:48:46;20.67;;;15.43;;
45033;SDS011;30771;47.988;-4.186;2023-02-11T16:51:11;19.42;;;16.33;;
45033;SDS011;30771;47.988;-4.186;2023-02-11T16:53:37;18.23;;;16.25;;
45033;SDS011;30771;47.988;-4.186;2023-02-11T16:56:02;18.83;;;15.52;;
45033;SDS011;30771;47.988;-4.186;2023-02-11T16:58:27;22.63;;;16.42;;
45033;SDS011;30771;47.988;-4.186;2023-02-11T17:00:53;20.25;;;15.98;;
45033;SDS011;30771;47.988;-4.186;2023-02-11T17:03:20;21.90;;;16.20;;
45033;SDS011;30771;47.988;-4.186;2023-02-11T17:05:48;23.27;;;17.92;;
45033;SDS011;30771;47.988;-4.186;2023-02-11T17:08:13;21.13;;;18.95;;
45033;SDS011;30771;47.988;-4.186;2023-02-11T17:10:39;26.17;;;19.25;;
45033;SDS011;30771;47.988;-4.186;2023-02-11T17:13:04;25.48;;;18.05;;
45033;SDS011;30771;47.988;-4.186;2023-02-11T17:15:30;25.52;;;19.40;;
45033;SDS011;30771;47.988;-4.186;2023-02-11T17:17:55;24.95;;;19.98;;
45033;SDS011;30771;47.988;-4.186;2023-02-11T17:20:20;26.83;;;20.73;;
45033;SDS011;30771;47.988;-4.186;2023-02-11T17:22:46;28.52;;;22.50;;
45033;SDS011;30771;47.988;-4.186;2023-02-11T17:25:11;25.17;;;22.00;;
45033;SDS011;30771;47.988;-4.186;2023-02-11T17:27:36;28.08;;;22.13;;
45033;SDS011;30771;47.988;-4.186;2023-02-11T17:30:02;27.48;;;22.30;;
45033;SDS011;30771;47.988;-4.186;2023-02-11T17:32:28;30.77;;;22.08;;
45033;SDS011;30771;47.988;-4.186;2023-02-11T17:34:53;42.17;;;24.65;;
45033;SDS011;30771;47.988;-4.186;2023-02-11T17:37:18;40.13;;;22.77;;
45033;SDS011;30771;47.988;-4.186;2023-02-11T17:39:44;32.33;;;23.63;;
45033;SDS011;30771;47.988;-4.186;2023-02-11T17:42:09;49.30;;;28.70;;
45033;SDS011;30771;47.988;-4.186;2023-02-11T17:44:34;44.22;;;27.80;;
45033;SDS011;30771;47.988;-4.186;2023-02-11T17:47:00;43.80;;;28.80;;
45033;SDS011;30771;47.988;-4.186;2023-02-11T17:49:25;48.70;;;31.85;;
45033;SDS011;30771;47.988;-4.186;2023-02-11T17:51:50;39.00;;;27.58;;
45033;SDS011;30771;47.988;-4.186;2023-02-11T17:54:16;52.40;;;32.40;;
45033;SDS011;30771;47.988;-4.186;2023-02-11T17:56:42;49.25;;;30.20;;
45033;SDS011;30771;47.988;-4.186;2023-02-11T17:59:09;102.93;;;56.13;;
45033;SDS011;30771;47.988;-4.186;2023-02-11T18:01:37;107.68;;;68.53;;
45033;SDS011;30771;47.988;-4.186;2023-02-11T18:04:03;93.85;;;59.00;;
45033;SDS011;30771;47.988;-4.186;2023-02-11T18:06:29;105.05;;;63.75;;
45033;SDS011;30771;47.988;-4.186;2023-02-11T18:08:56;71.93;;;49.28;;
45033;SDS011;30771;47.988;-4.186;2023-02-11T18:11:21;93.35;;;59.35;;
45033;SDS011;30771;47.988;-4.186;2023-02-11T18:13:47;72.47;;;47.05;;
45033;SDS011;30771;47.988;-4.186;2023-02-11T18:16:13;73.10;;;46.85;;
45033;SDS011;30771;47.988;-4.186;2023-02-11T18:18:38;39.28;;;27.85;;
45033;SDS011;30771;47.988;-4.186;2023-02-11T18:21:03;32.58;;;22.42;;
45033;SDS011;30771;47.988;-4.186;2023-02-11T18:23:29;48.65;;;29.00;;
45033;SDS011;30771;47.988;-4.186;2023-02-11T18:25:54;51.03;;;30.50;;
45033;SDS011;30771;47.988;-4.186;2023-02-11T18:28:20;49.97;;;29.63;;
45033;SDS011;30771;47.988;-4.186;2023-02-11T18:30:45;61.00;;;32.22;;
45033;SDS011;30771;47.988;-4.186;2023-02-11T18:33:11;56.85;;;33.08;;
45033;SDS011;30771;47.988;-4.186;2023-02-11T18:35:37;69.00;;;37.95;;
45033;SDS011;30771;47.988;-4.186;2023-02-11T18:38:03;53.83;;;30.08;;
45033;SDS011;30771;47.988;-4.186;2023-02-11T18:40:28;99.45;;;46.03;;
45033;SDS011;30771;47.988;-4.186;2023-02-11T18:42:53;83.25;;;42.45;;
45033;SDS011;30771;47.988;-4.186;2023-02-11T18:45:18;63.88;;;36.28;;
45033;SDS011;30771;47.988;-4.186;2023-02-11T18:47:44;80.13;;;42.30;;
45033;SDS011;30771;47.988;-4.186;2023-02-11T18:50:09;51.80;;;30.13;;
45033;SDS011;30771;47.988;-4.186;2023-02-11T18:52:35;48.72;;;30.38;;
45033;SDS011;30771;47.988;-4.186;2023-02-11T18:55:00;41.30;;;27.73;;
45033;SDS011;30771;47.988;-4.186;2023-02-11T18:57:26;50.78;;;33.25;;
45033;SDS011;30771;47.988;-4.186;2023-02-11T18:59:51;70.28;;;42.53;;
45033;SDS011;30771;47.988;-4.186;2023-02-11T19:02:18;61.97;;;39.85;;
45033;SDS011;30771;47.988;-4.186;2023-02-11T19:04:43;54.83;;;35.22;;
45033;SDS011;30771;47.988;-4.186;2023-02-11T19:07:08;107.90;;;53.22;;
45033;SDS011;30771;47.988;-4.186;2023-02-11T19:09:34;76.93;;;47.13;;
45033;SDS011;30771;47.988;-4.186;2023-02-11T19:12:00;54.38;;;36.38;;
45033;SDS011;30771;47.988;-4.186;2023-02-11T19:14:26;87.43;;;56.78;;
45033;SDS011;30771;47.988;-4.186;2023-02-11T19:16:56;61.67;;;39.92;;
45033;SDS011;30771;47.988;-4.186;2023-02-11T19:19:23;51.10;;;33.38;;
45033;SDS011;30771;47.988;-4.186;2023-02-11T19:21:50;36.42;;;27.23;;
45033;SDS011;30771;47.988;-4.186;2023-02-11T19:24:16;51.92;;;33.72;;
45033;SDS011;30771;47.988;-4.186;2023-02-11T19:26:41;67.22;;;42.25;;
45033;SDS011;30771;47.988;-4.186;2023-02-11T19:29:07;77.97;;;48.22;;
45033;SDS011;30771;47.988;-4.186;2023-02-11T19:31:33;72.35;;;44.80;;
45033;SDS011;30771;47.988;-4.186;2023-02-11T19:33:59;57.13;;;35.97;;
45033;SDS011;30771;47.988;-4.186;2023-02-11T19:36:25;54.50;;;33.03;;
45033;SDS011;30771;47.988;-4.186;2023-02-11T19:38:50;42.97;;;31.27;;
45033;SDS011;30771;47.988;-4.186;2023-02-11T19:41:16;42.50;;;29.85;;
45033;SDS011;30771;47.988;-4.186;2023-02-11T19:43:41;43.42;;;29.65;;
45033;SDS011;30771;47.988;-4.186;2023-02-11T19:46:06;43.15;;;28.80;;
45033;SDS011;30771;47.988;-4.186;2023-02-11T19:48:32;41.15;;;29.20;;
45033;SDS011;30771;47.988;-4.186;2023-02-11T19:51:03;48.40;;;30.55;;
45033;SDS011;30771;47.988;-4.186;2023-02-11T19:53:31;43.35;;;30.58;;
45033;SDS011;30771;47.988;-4.186;2023-02-11T19:55:59;42.53;;;30.10;;
45033;SDS011;30771;47.988;-4.186;2023-02-11T19:58:25;47.25;;;31.42;;
45033;SDS011;30771;47.988;-4.186;2023-02-11T20:00:50;53.20;;;34.92;;
45033;SDS011;30771;47.988;-4.186;2023-02-11T20:03:15;46.05;;;32.15;;
45033;SDS011;30771;47.988;-4.186;2023-02-11T20:05:41;44.03;;;31.40;;
45033;SDS011;30771;47.988;-4.186;2023-02-11T20:08:06;44.67;;;31.05;;
45033;SDS011;30771;47.988;-4.186;2023-02-11T20:10:31;49.33;;;31.38;;
45033;SDS011;30771;47.988;-4.186;2023-02-11T20:12:58;43.45;;;29.75;;
45033;SDS011;30771;47.988;-4.186;2023-02-11T20:15:23;46.67;;;31.98;;
45033;SDS011;30771;47.988;-4.186;2023-02-11T20:17:48;45.97;;;32.65;;
45033;SDS011;30771;47.988;-4.186;2023-02-11T20:20:14;50.15;;;35.28;;
45033;SDS011;30771;47.988;-4.186;2023-02-11T20:22:39;46.13;;;35.13;;
45033;SDS011;30771;47.988;-4.186;2023-02-11T20:25:04;38.95;;;25.67;;
45033;SDS011;30771;47.988;-4.186;2023-02-11T20:27:30;36.90;;;28.13;;
45033;SDS011;30771;47.988;-4.186;2023-02-11T20:29:55;37.05;;;25.27;;
45033;SDS011;30771;47.988;-4.186;2023-02-11T20:32:21;35.53;;;23.70;;
45033;SDS011;30771;47.988;-4.186;2023-02-11T20:34:46;34.97;;;23.73;;
45033;SDS011;30771;47.988;-4.186;2023-02-11T20:37:11;31.95;;;23.02;;
45033;SDS011;30771;47.988;-4.186;2023-02-11T20:39:36;33.67;;;23.85;;
45033;SDS011;30771;47.988;-4.186;2023-02-11T20:42:02;34.45;;;23.02;;
45033;SDS011;30771;47.988;-4.186;2023-02-11T20:44:27;35.50;;;24.38;;
45033;SDS011;30771;47.988;-4.186;2023-02-11T20:46:52;36.63;;;24.20;;
45033;SDS011;30771;47.988;-4.186;2023-02-11T20:49:19;39.45;;;25.40;;
45033;SDS011;30771;47.988;-4.186;2023-02-11T20:51:46;34.63;;;24.45;;
45033;SDS011;30771;47.988;-4.186;2023-02-11T20:54:12;33.28;;;24.60;;
45033;SDS011;30771;47.988;-4.186;2023-02-11T20:56:40;38.17;;;25.02;;
45033;SDS011;30771;47.988;-4.186;2023-02-11T20:59:06;38.20;;;26.33;;
45033;SDS011;30771;47.988;-4.186;2023-02-11T21:01:33;37.53;;;25.52;;
45033;SDS011;30771;47.988;-4.186;2023-02-11T21:06:34;34.80;;;25.17;;
45033;SDS011;30771;47.988;-4.186;2023-02-11T21:09:02;32.97;;;24.42;;
45033;SDS011;30771;47.988;-4.186;2023-02-11T21:11:29;36.20;;;25.60;;
45033;SDS011;30771;47.988;-4.186;2023-02-11T21:13:55;33.88;;;25.15;;
45033;SDS011;30771;47.988;-4.186;2023-02-11T21:16:20;39.53;;;27.48;;
45033;SDS011;30771;47.988;-4.186;2023-02-11T21:18:46;36.33;;;24.92;;
45033;SDS011;30771;47.988;-4.186;2023-02-11T21:21:12;41.15;;;26.92;;
45033;SDS011;30771;47.988;-4.186;2023-02-11T21:23:37;34.45;;;26.10;;
45033;SDS011;30771;47.988;-4.186;2023-02-11T21:26:02;36.13;;;26.23;;
45033;SDS011;30771;47.988;-4.186;2023-02-11T21:28:28;39.33;;;25.67;;
45033;SDS011;30771;47.988;-4.186;2023-02-11T21:30:54;37.28;;;26.50;;
45033;SDS011;30771;47.988;-4.186;2023-02-11T21:33:20;33.88;;;24.40;;
45033;SDS011;30771;47.988;-4.186;2023-02-11T21:35:46;33.78;;;25.10;;
45033;SDS011;30771;47.988;-4.186;2023-02-11T21:38:12;39.15;;;26.48;;
45033;SDS011;30771;47.988;-4.186;2023-02-11T21:40:37;38.25;;;25.88;;
45033;SDS011;30771;47.988;-4.186;2023-02-11T21:43:03;34.45;;;25.55;;
45033;SDS011;30771;47.988;-4.186;2023-02-11T21:45:28;31.48;;;24.58;;
45033;SDS011;30771;47.988;-4.186;2023-02-11T21:47:54;34.00;;;25.15;;
45033;SDS011;30771;47.988;-4.186;2023-02-11T21:50:19;36.20;;;25.52;;
45033;SDS011;30771;47.988;-4.186;2023-02-11T21:52:44;36.38;;;25.35;;
45033;SDS011;30771;47.988;-4.186;2023-02-11T21:55:09;36.30;;;23.75;;
45033;SDS011;30771;47.988;-4.186;2023-02-11T21:57:35;34.15;;;25.40;;
45033;SDS011;30771;47.988;-4.186;2023-02-11T22:00:00;37.85;;;26.95;;
45033;SDS011;30771;47.988;-4.186;2023-02-11T22:02:26;36.22;;;26.05;;
45033;SDS011;30771;47.988;-4.186;2023-02-11T22:04:51;37.20;;;27.55;;
45033;SDS011;30771;47.988;-4.186;2023-02-11T22:07:17;35.42;;;26.35;;
45033;SDS011;30771;47.988;-4.186;2023-02-11T22:09:42;42.33;;;27.58;;
45033;SDS011;30771;47.988;-4.186;2023-02-11T22:12:07;38.83;;;27.02;;
45033;SDS011;30771;47.988;-4.186;2023-02-11T22:14:33;36.95;;;25.90;;
45033;SDS011;30771;47.988;-4.186;2023-02-11T22:16:59;35.97;;;25.42;;
45033;SDS011;30771;47.988;-4.186;2023-02-11T22:19:24;36.55;;;26.13;;
45033;SDS011;30771;47.988;-4.186;2023-02-11T22:21:50;35.33;;;26.35;;
45033;SDS011;30771;47.988;-4.186;2023-02-11T22:24:15;36.08;;;25.95;;
45033;SDS011;30771;47.988;-4.186;2023-02-11T22:26:40;36.45;;;25.85;;
45033;SDS011;30771;47.988;-4.186;2023-02-11T22:29:06;36.53;;;25.92;;
45033;SDS011;30771;47.988;-4.186;2023-02-11T22:31:32;36.65;;;27.13;;
45033;SDS011;30771;47.988;-4.186;2023-02-11T22:33:58;34.72;;;25.05;;
45033;SDS011;30771;47.988;-4.186;2023-02-11T22:36:25;34.28;;;26.23;;
45033;SDS011;30771;47.988;-4.186;2023-02-11T22:38:52;39.53;;;26.13;;
45033;SDS011;30771;47.988;-4.186;2023-02-11T22:41:19;38.08;;;27.10;;
45033;SDS011;30771;47.988;-4.186;2023-02-11T22:43:45;33.83;;;25.27;;
45033;SDS011;30771;47.988;-4.186;2023-02-11T22:46:11;33.92;;;25.13;;
45033;SDS011;30771;47.988;-4.186;2023-02-11T22:48:39;33.38;;;25.92;;
45033;SDS011;30771;47.988;-4.186;2023-02-11T22:53:31;36.33;;;26.92;;
45033;SDS011;30771;47.988;-4.186;2023-02-11T22:56:00;36.45;;;26.08;;
45033;SDS011;30771;47.988;-4.186;2023-02-11T22:58:30;38.22;;;26.25;;
45033;SDS011;30771;47.988;-4.186;2023-02-11T23:00:55;38.08;;;26.40;;
45033;SDS011;30771;47.988;-4.186;2023-02-11T23:03:21;37.85;;;26.88;;
45033;SDS011;30771;47.988;-4.186;2023-02-11T23:05:46;37.15;;;27.27;;
45033;SDS011;30771;47.988;-4.186;2023-02-11T23:08:11;34.90;;;27.02;;
45033;SDS011;30771;47.988;-4.186;2023-02-11T23:10:37;39.17;;;27.55;;
45033;SDS011;30771;47.988;-4.186;2023-02-11T23:13:03;40.72;;;27.98;;
45033;SDS011;30771;47.988;-4.186;2023-02-11T23:15:29;39.75;;;27.15;;
45033;SDS011;30771;47.988;-4.186;2023-02-11T23:17:55;37.28;;;26.90;;
45033;SDS011;30771;47.988;-4.186;2023-02-11T23:20:21;34.75;;;27.05;;
45033;SDS011;30771;47.988;-4.186;2023-02-11T23:22:46;38.40;;;27.70;;
45033;SDS011;30771;47.988;-4.186;2023-02-11T23:25:11;38.75;;;26.92;;
45033;SDS011;30771;47.988;-4.186;2023-02-11T23:27:37;44.20;;;27.63;;
45033;SDS011;30771;47.988;-4.186;2023-02-11T23:30:02;42.33;;;27.63;;
45033;SDS011;30771;47.988;-4.186;2023-02-11T23:32:28;36.47;;;26.20;;
45033;SDS011;30771;47.988;-4.186;2023-02-11T23:34:54;38.30;;;26.80;;
45033;SDS011;30771;47.988;-4.186;2023-02-11T23:37:19;38.45;;;27.60;;
45033;SDS011;30771;47.988;-4.186;2023-02-11T23:39:44;41.17;;;27.80;;